sensor_id;sensor_type;location;lat;lon;timestamp;pressure;altitude;pressure_sealevel;temperature;humidity
10668;BME280;5382;42.136;24.796;2022-09-09T00:01:49;100015.84;;;19.51;100.00
10668;BME280;5382;42.136;24.796;2022-09-09T00:04:25;100035.53;;;19.68;100.00
10668;BME280;5382;42.136;24.796;2022-09-09T00:06:59;100058.31;;;19.64;100.00
10668;BME280;5382;42.136;24.796;2022-09-09T00:09:31;100059.44;;;19.45;100.00
10668;BME280;5382;42.136;24.796;2022-09-09T00:12:10;100079.28;;;19.52;100.00
10668;BME280;5382;42.136;24.796;2022-09-09T00:14:43;100036.09;;;19.29;100.00
10668;BME280;5382;42.136;24.796;2022-09-09T00:17:19;100001.75;;;18.90;100.00
10668;BME280;5382;42.136;24.796;2022-09-09T00:19:54;100032.78;;;18.93;100.00
10668;BME280;5382;42.136;24.796;2022-09-09T00:22:25;100059.63;;;19.01;100.00
10668;BME280;5382;42.136;24.796;2022-09-09T00:24:55;100029.47;;;18.73;100.00
10668;BME280;5382;42.136;24.796;2022-09-09T00:27:28;100056.47;;;19.06;100.00
10668;BME280;5382;42.136;24.796;2022-09-09T00:30:01;100038.75;;;19.13;100.00
10668;BME280;5382;42.136;24.796;2022-09-09T00:32:30;100061.59;;;19.33;100.00
10668;BME280;5382;42.136;24.796;2022-09-09T00:35:03;100069.91;;;19.14;100.00
10668;BME280;5382;42.136;24.796;2022-09-09T00:37:32;100017.03;;;18.90;100.00
10668;BME280;5382;42.136;24.796;2022-09-09T00:40:05;100058.81;;;19.09;100.00
10668;BME280;5382;42.136;24.796;2022-09-09T00:42:42;100057.19;;;19.16;100.00
10668;BME280;5382;42.136;24.796;2022-09-09T00:45:25;100065.47;;;19.39;100.00
10668;BME280;5382;42.136;24.796;2022-09-09T00:48:02;100020.56;;;18.99;100.00
10668;BME280;5382;42.136;24.796;2022-09-09T00:50:43;99953.38;;;18.66;100.00
10668;BME280;5382;42.136;24.796;2022-09-09T00:53:30;100051.00;;;19.24;100.00
10668;BME280;5382;42.136;24.796;2022-09-09T00:56:07;100034.22;;;19.13;100.00
10668;BME280;5382;42.136;24.796;2022-09-09T00:58:36;100060.59;;;19.34;100.00
10668;BME280;5382;42.136;24.796;2022-09-09T01:01:07;100037.38;;;19.09;100.00
10668;BME280;5382;42.136;24.796;2022-09-09T01:03:40;100019.75;;;19.06;100.00
10668;BME280;5382;42.136;24.796;2022-09-09T01:06:16;100038.88;;;19.11;100.00
10668;BME280;5382;42.136;24.796;2022-09-09T01:09:04;100042.44;;;19.20;100.00
10668;BME280;5382;42.136;24.796;2022-09-09T01:11:37;100092.22;;;19.23;100.00
10668;BME280;5382;42.136;24.796;2022-09-09T01:14:20;100043.94;;;18.80;100.00
10668;BME280;5382;42.136;24.796;2022-09-09T01:16:54;100078.38;;;18.93;100.00
10668;BME280;5382;42.136;24.796;2022-09-09T01:19:38;100101.56;;;18.76;100.00
10668;BME280;5382;42.136;24.796;2022-09-09T01:22:17;100014.50;;;18.10;100.00
10668;BME280;5382;42.136;24.796;2022-09-09T01:25:11;100050.44;;;18.25;100.00
10668;BME280;5382;42.136;24.796;2022-09-09T01:27:48;100075.28;;;18.53;100.00
10668;BME280;5382;42.136;24.796;2022-09-09T01:30:18;100073.94;;;18.58;100.00
10668;BME280;5382;42.136;24.796;2022-09-09T01:32:46;100074.59;;;18.78;100.00
10668;BME280;5382;42.136;24.796;2022-09-09T01:35:22;100068.22;;;18.79;100.00
10668;BME280;5382;42.136;24.796;2022-09-09T01:37:54;100031.22;;;18.56;100.00
10668;BME280;5382;42.136;24.796;2022-09-09T01:40:21;100030.78;;;18.69;100.00
10668;BME280;5382;42.136;24.796;2022-09-09T01:42:50;100054.44;;;18.73;100.00
10668;BME280;5382;42.136;24.796;2022-09-09T01:45:17;100065.78;;;18.93;100.00
10668;BME280;5382;42.136;24.796;2022-09-09T01:47:45;99983.00;;;18.30;100.00
10668;BME280;5382;42.136;24.796;2022-09-09T01:50:15;99946.13;;;18.24;100.00
10668;BME280;5382;42.136;24.796;2022-09-09T01:52:44;100042.56;;;18.76;100.00
10668;BME280;5382;42.136;24.796;2022-09-09T01:55:11;100065.81;;;19.02;100.00
10668;BME280;5382;42.136;24.796;2022-09-09T01:57:43;100075.03;;;18.99;100.00
10668;BME280;5382;42.136;24.796;2022-09-09T02:00:18;100039.34;;;18.72;100.00
10668;BME280;5382;42.136;24.796;2022-09-09T02:02:52;100061.28;;;18.94;100.00
10668;BME280;5382;42.136;24.796;2022-09-09T02:05:31;100009.16;;;18.36;100.00
10668;BME280;5382;42.136;24.796;2022-09-09T02:08:06;100027.22;;;18.34;100.00
10668;BME280;5382;42.136;24.796;2022-09-09T02:10:39;100068.31;;;18.43;100.00
10668;BME280;5382;42.136;24.796;2022-09-09T02:13:11;100066.22;;;18.28;100.00
10668;BME280;5382;42.136;24.796;2022-09-09T02:15:45;99975.47;;;17.63;100.00
10668;BME280;5382;42.136;24.796;2022-09-09T02:18:15;100054.56;;;18.20;100.00
10668;BME280;5382;42.136;24.796;2022-09-09T02:20:46;100051.41;;;17.98;100.00
10668;BME280;5382;42.136;24.796;2022-09-09T02:23:15;100030.03;;;18.06;100.00
10668;BME280;5382;42.136;24.796;2022-09-09T02:25:43;99926.94;;;17.40;100.00
10668;BME280;5382;42.136;24.796;2022-09-09T02:28:13;100016.16;;;17.85;100.00
10668;BME280;5382;42.136;24.796;2022-09-09T02:30:45;100057.09;;;18.21;100.00
10668;BME280;5382;42.136;24.796;2022-09-09T02:33:14;99942.34;;;17.47;100.00
10668;BME280;5382;42.136;24.796;2022-09-09T02:35:42;100089.31;;;18.29;100.00
10668;BME280;5382;42.136;24.796;2022-09-09T02:38:12;100042.19;;;18.19;100.00
10668;BME280;5382;42.136;24.796;2022-09-09T02:40:41;100036.53;;;18.04;100.00
10668;BME280;5382;42.136;24.796;2022-09-09T02:43:08;100024.53;;;18.08;100.00
10668;BME280;5382;42.136;24.796;2022-09-09T02:45:44;100063.81;;;18.43;100.00
10668;BME280;5382;42.136;24.796;2022-09-09T02:48:20;100054.66;;;18.28;100.00
10668;BME280;5382;42.136;24.796;2022-09-09T02:50:52;100027.09;;;17.92;100.00
10668;BME280;5382;42.136;24.796;2022-09-09T02:53:24;100058.72;;;18.14;100.00
10668;BME280;5382;42.136;24.796;2022-09-09T02:55:58;100034.63;;;18.14;100.00
10668;BME280;5382;42.136;24.796;2022-09-09T02:58:30;100052.84;;;18.11;100.00
10668;BME280;5382;42.136;24.796;2022-09-09T03:00:59;100040.63;;;17.90;100.00
10668;BME280;5382;42.136;24.796;2022-09-09T03:03:28;100115.78;;;18.15;100.00
10668;BME280;5382;42.136;24.796;2022-09-09T03:05:55;100086.66;;;18.12;100.00
10668;BME280;5382;42.136;24.796;2022-09-09T03:08:23;100041.16;;;17.94;100.00
10668;BME280;5382;42.136;24.796;2022-09-09T03:10:50;100073.31;;;18.20;100.00
10668;BME280;5382;42.136;24.796;2022-09-09T03:13:19;100043.47;;;18.15;100.00
10668;BME280;5382;42.136;24.796;2022-09-09T03:15:47;100057.78;;;18.23;100.00
10668;BME280;5382;42.136;24.796;2022-09-09T03:18:16;100046.16;;;18.15;100.00
10668;BME280;5382;42.136;24.796;2022-09-09T03:20:43;100081.44;;;18.28;100.00
10668;BME280;5382;42.136;24.796;2022-09-09T03:23:09;100010.66;;;17.86;100.00
10668;BME280;5382;42.136;24.796;2022-09-09T03:25:38;100048.47;;;18.09;100.00
10668;BME280;5382;42.136;24.796;2022-09-09T03:28:05;99957.50;;;17.56;100.00
10668;BME280;5382;42.136;24.796;2022-09-09T03:30:32;100116.06;;;18.47;100.00
10668;BME280;5382;42.136;24.796;2022-09-09T03:32:59;100037.16;;;18.16;100.00
10668;BME280;5382;42.136;24.796;2022-09-09T03:35:27;100090.19;;;18.56;100.00
10668;BME280;5382;42.136;24.796;2022-09-09T03:37:55;100094.88;;;18.54;100.00
10668;BME280;5382;42.136;24.796;2022-09-09T03:40:22;100046.84;;;18.17;100.00
10668;BME280;5382;42.136;24.796;2022-09-09T03:42:48;100096.13;;;18.68;100.00
10668;BME280;5382;42.136;24.796;2022-09-09T03:45:15;100076.25;;;18.52;100.00
10668;BME280;5382;42.136;24.796;2022-09-09T03:47:42;100111.00;;;18.62;100.00
10668;BME280;5382;42.136;24.796;2022-09-09T03:50:09;100055.25;;;18.22;100.00
10668;BME280;5382;42.136;24.796;2022-09-09T03:52:39;100115.50;;;18.36;100.00
10668;BME280;5382;42.136;24.796;2022-09-09T03:55:07;100100.09;;;18.20;100.00
10668;BME280;5382;42.136;24.796;2022-09-09T03:57:34;100062.66;;;17.84;100.00
10668;BME280;5382;42.136;24.796;2022-09-09T04:00:03;100023.44;;;17.47;100.00
10668;BME280;5382;42.136;24.796;2022-09-09T04:02:30;100109.00;;;18.02;100.00
10668;BME280;5382;42.136;24.796;2022-09-09T04:04:57;100109.31;;;17.99;100.00
10668;BME280;5382;42.136;24.796;2022-09-09T04:07:25;100098.91;;;17.96;100.00
10668;BME280;5382;42.136;24.796;2022-09-09T04:09:54;100078.28;;;17.61;100.00
10668;BME280;5382;42.136;24.796;2022-09-09T04:12:21;100061.38;;;17.42;100.00
10668;BME280;5382;42.136;24.796;2022-09-09T04:14:47;100054.84;;;17.27;100.00
10668;BME280;5382;42.136;24.796;2022-09-09T04:17:14;100104.09;;;17.52;100.00
10668;BME280;5382;42.136;24.796;2022-09-09T04:19:41;100107.59;;;17.53;100.00
10668;BME280;5382;42.136;24.796;2022-09-09T04:22:08;100065.88;;;17.42;100.00
10668;BME280;5382;42.136;24.796;2022-09-09T04:24:35;100103.16;;;17.71;100.00
10668;BME280;5382;42.136;24.796;2022-09-09T04:27:04;100098.19;;;17.76;100.00
10668;BME280;5382;42.136;24.796;2022-09-09T04:29:31;100092.84;;;17.76;100.00
10668;BME280;5382;42.136;24.796;2022-09-09T04:31:59;100079.13;;;17.61;100.00
10668;BME280;5382;42.136;24.796;2022-09-09T04:34:25;100096.53;;;17.93;100.00
10668;BME280;5382;42.136;24.796;2022-09-09T04:36:52;100107.41;;;17.92;100.00
10668;BME280;5382;42.136;24.796;2022-09-09T04:39:20;100102.19;;;17.90;100.00
10668;BME280;5382;42.136;24.796;2022-09-09T04:41:47;100062.91;;;17.63;100.00
10668;BME280;5382;42.136;24.796;2022-09-09T04:44:16;100062.94;;;17.81;100.00
10668;BME280;5382;42.136;24.796;2022-09-09T04:46:43;100111.91;;;18.09;100.00
10668;BME280;5382;42.136;24.796;2022-09-09T04:49:10;100111.44;;;18.14;100.00
10668;BME280;5382;42.136;24.796;2022-09-09T04:51:38;100081.53;;;17.82;100.00
10668;BME280;5382;42.136;24.796;2022-09-09T04:54:05;100130.34;;;18.12;100.00
10668;BME280;5382;42.136;24.796;2022-09-09T04:56:33;100054.03;;;17.44;100.00
10668;BME280;5382;42.136;24.796;2022-09-09T04:59:01;99963.78;;;17.01;100.00
10668;BME280;5382;42.136;24.796;2022-09-09T05:01:30;100110.69;;;18.03;100.00
10668;BME280;5382;42.136;24.796;2022-09-09T05:03:57;100108.38;;;18.08;100.00
10668;BME280;5382;42.136;24.796;2022-09-09T05:06:24;100155.50;;;18.37;100.00
10668;BME280;5382;42.136;24.796;2022-09-09T05:08:52;100023.69;;;17.54;100.00
10668;BME280;5382;42.136;24.796;2022-09-09T05:11:21;100124.19;;;18.38;100.00
10668;BME280;5382;42.136;24.796;2022-09-09T05:13:49;100126.19;;;18.53;100.00
10668;BME280;5382;42.136;24.796;2022-09-09T05:16:17;100058.13;;;18.20;100.00
10668;BME280;5382;42.136;24.796;2022-09-09T05:18:45;100094.88;;;18.54;100.00
10668;BME280;5382;42.136;24.796;2022-09-09T05:21:14;100014.75;;;18.25;100.00
10668;BME280;5382;42.136;24.796;2022-09-09T05:23:59;100120.53;;;19.09;100.00
10668;BME280;5382;42.136;24.796;2022-09-09T05:26:26;100115.38;;;19.15;100.00
10668;BME280;5382;42.136;24.796;2022-09-09T05:28:54;100119.91;;;19.23;100.00
10668;BME280;5382;42.136;24.796;2022-09-09T05:31:22;100116.59;;;19.29;100.00
10668;BME280;5382;42.136;24.796;2022-09-09T05:33:52;99956.09;;;18.40;100.00
10668;BME280;5382;42.136;24.796;2022-09-09T05:36:21;100090.28;;;18.99;100.00
10668;BME280;5382;42.136;24.796;2022-09-09T05:38:48;100092.50;;;19.03;100.00
10668;BME280;5382;42.136;24.796;2022-09-09T05:41:16;100079.56;;;18.99;100.00
10668;BME280;5382;42.136;24.796;2022-09-09T05:43:45;100120.31;;;19.36;100.00
10668;BME280;5382;42.136;24.796;2022-09-09T05:46:15;100131.34;;;19.33;100.00
10668;BME280;5382;42.136;24.796;2022-09-09T05:48:43;100121.97;;;19.37;100.00
10668;BME280;5382;42.136;24.796;2022-09-09T05:51:14;100069.66;;;18.99;100.00
10668;BME280;5382;42.136;24.796;2022-09-09T05:53:43;99964.97;;;18.40;100.00
10668;BME280;5382;42.136;24.796;2022-09-09T05:56:14;100030.28;;;18.73;100.00
10668;BME280;5382;42.136;24.796;2022-09-09T05:58:43;100054.75;;;18.96;100.00
10668;BME280;5382;42.136;24.796;2022-09-09T06:01:13;100101.09;;;19.15;100.00
10668;BME280;5382;42.136;24.796;2022-09-09T06:03:42;100096.47;;;19.33;100.00
10668;BME280;5382;42.136;24.796;2022-09-09T06:06:10;100123.06;;;19.61;100.00
10668;BME280;5382;42.136;24.796;2022-09-09T06:08:40;100111.50;;;19.60;100.00
10668;BME280;5382;42.136;24.796;2022-09-09T06:11:10;100097.22;;;19.52;100.00
10668;BME280;5382;42.136;24.796;2022-09-09T06:13:38;100089.69;;;19.64;100.00
10668;BME280;5382;42.136;24.796;2022-09-09T06:16:06;100096.94;;;19.71;100.00
10668;BME280;5382;42.136;24.796;2022-09-09T06:18:34;100098.13;;;19.69;100.00
10668;BME280;5382;42.136;24.796;2022-09-09T06:21:03;100054.06;;;19.45;100.00
10668;BME280;5382;42.136;24.796;2022-09-09T06:23:32;100096.31;;;19.77;100.00
10668;BME280;5382;42.136;24.796;2022-09-09T06:26:03;100092.94;;;19.83;100.00
10668;BME280;5382;42.136;24.796;2022-09-09T06:28:31;100090.63;;;19.97;100.00
10668;BME280;5382;42.136;24.796;2022-09-09T06:31:00;100082.91;;;20.10;100.00
10668;BME280;5382;42.136;24.796;2022-09-09T06:33:27;100081.56;;;20.14;100.00
10668;BME280;5382;42.136;24.796;2022-09-09T06:35:57;100087.25;;;20.03;100.00
10668;BME280;5382;42.136;24.796;2022-09-09T06:38:24;100104.72;;;20.15;100.00
10668;BME280;5382;42.136;24.796;2022-09-09T06:40:52;100104.72;;;20.07;100.00
10668;BME280;5382;42.136;24.796;2022-09-09T06:43:21;100113.63;;;20.16;100.00
10668;BME280;5382;42.136;24.796;2022-09-09T06:45:55;100076.69;;;20.01;100.00
10668;BME280;5382;42.136;24.796;2022-09-09T06:48:22;100103.56;;;20.34;100.00
10668;BME280;5382;42.136;24.796;2022-09-09T06:50:51;100069.13;;;20.13;100.00
10668;BME280;5382;42.136;24.796;2022-09-09T06:53:19;100048.47;;;19.97;100.00
10668;BME280;5382;42.136;24.796;2022-09-09T06:55:46;100094.34;;;20.37;100.00
10668;BME280;5382;42.136;24.796;2022-09-09T06:58:13;100125.22;;;20.41;100.00
10668;BME280;5382;42.136;24.796;2022-09-09T07:00:41;100111.78;;;20.41;100.00
10668;BME280;5382;42.136;24.796;2022-09-09T07:03:10;100108.59;;;20.45;100.00
10668;BME280;5382;42.136;24.796;2022-09-09T07:05:37;100088.28;;;20.43;100.00
10668;BME280;5382;42.136;24.796;2022-09-09T07:08:04;100115.66;;;20.71;100.00
10668;BME280;5382;42.136;24.796;2022-09-09T07:10:31;100109.44;;;20.71;100.00
10668;BME280;5382;42.136;24.796;2022-09-09T07:12:59;100116.13;;;20.91;100.00
10668;BME280;5382;42.136;24.796;2022-09-09T07:15:27;100113.22;;;21.01;100.00
10668;BME280;5382;42.136;24.796;2022-09-09T07:17:55;100108.34;;;21.04;100.00
10668;BME280;5382;42.136;24.796;2022-09-09T07:20:27;100103.28;;;21.09;100.00
10668;BME280;5382;42.136;24.796;2022-09-09T07:22:54;100109.97;;;21.13;100.00
10668;BME280;5382;42.136;24.796;2022-09-09T07:25:22;100113.50;;;21.14;100.00
10668;BME280;5382;42.136;24.796;2022-09-09T07:27:49;100106.44;;;21.21;100.00
10668;BME280;5382;42.136;24.796;2022-09-09T07:30:16;100111.69;;;21.15;100.00
10668;BME280;5382;42.136;24.796;2022-09-09T07:32:44;100109.78;;;21.23;100.00
10668;BME280;5382;42.136;24.796;2022-09-09T07:35:13;100092.84;;;21.15;100.00
10668;BME280;5382;42.136;24.796;2022-09-09T07:37:40;100086.13;;;21.10;100.00
10668;BME280;5382;42.136;24.796;2022-09-09T07:40:07;100052.16;;;21.01;100.00
10668;BME280;5382;42.136;24.796;2022-09-09T07:42:34;100105.34;;;21.47;100.00
10668;BME280;5382;42.136;24.796;2022-09-09T07:45:01;100069.34;;;21.40;100.00
10668;BME280;5382;42.136;24.796;2022-09-09T07:47:28;100101.19;;;21.67;100.00
10668;BME280;5382;42.136;24.796;2022-09-09T07:49:55;100109.88;;;21.77;100.00
10668;BME280;5382;42.136;24.796;2022-09-09T07:52:26;100087.81;;;21.82;99.04
10668;BME280;5382;42.136;24.796;2022-09-09T07:54:53;100096.78;;;21.97;99.67
10668;BME280;5382;42.136;24.796;2022-09-09T07:57:21;100086.09;;;22.04;100.00
10668;BME280;5382;42.136;24.796;2022-09-09T07:59:48;100085.56;;;22.09;98.72
10668;BME280;5382;42.136;24.796;2022-09-09T08:02:16;100084.69;;;22.16;96.80
10668;BME280;5382;42.136;24.796;2022-09-09T08:04:42;100082.16;;;22.15;93.07
10668;BME280;5382;42.136;24.796;2022-09-09T08:07:09;100069.50;;;22.24;92.30
10668;BME280;5382;42.136;24.796;2022-09-09T08:09:38;100080.19;;;22.32;91.12
10668;BME280;5382;42.136;24.796;2022-09-09T08:12:05;100078.38;;;22.47;92.67
10668;BME280;5382;42.136;24.796;2022-09-09T08:14:34;100080.06;;;22.63;93.15
10668;BME280;5382;42.136;24.796;2022-09-09T08:17:01;100074.88;;;22.76;90.43
10668;BME280;5382;42.136;24.796;2022-09-09T08:19:28;100072.16;;;22.91;90.57
10668;BME280;5382;42.136;24.796;2022-09-09T08:21:55;100066.97;;;23.04;88.20
10668;BME280;5382;42.136;24.796;2022-09-09T08:24:23;100073.88;;;23.22;87.92
10668;BME280;5382;42.136;24.796;2022-09-09T08:26:51;100076.72;;;23.35;87.29
10668;BME280;5382;42.136;24.796;2022-09-09T08:29:19;100067.56;;;23.51;85.65
10668;BME280;5382;42.136;24.796;2022-09-09T08:31:48;100068.84;;;23.55;84.10
10668;BME280;5382;42.136;24.796;2022-09-09T08:34:15;100066.81;;;23.57;84.67
10668;BME280;5382;42.136;24.796;2022-09-09T08:36:44;100056.63;;;23.74;83.40
10668;BME280;5382;42.136;24.796;2022-09-09T08:39:14;100057.56;;;23.88;82.70
10668;BME280;5382;42.136;24.796;2022-09-09T08:42:00;100058.31;;;23.97;81.58
10668;BME280;5382;42.136;24.796;2022-09-09T08:44:41;100016.41;;;23.86;82.59
10668;BME280;5382;42.136;24.796;2022-09-09T08:47:19;100034.00;;;24.03;82.03
10668;BME280;5382;42.136;24.796;2022-09-09T08:50:02;100049.19;;;24.26;82.04
10668;BME280;5382;42.136;24.796;2022-09-09T08:52:37;100054.94;;;24.44;80.67
10668;BME280;5382;42.136;24.796;2022-09-09T08:55:17;100050.34;;;24.66;79.14
10668;BME280;5382;42.136;24.796;2022-09-09T08:57:51;100044.88;;;24.94;79.29
10668;BME280;5382;42.136;24.796;2022-09-09T09:00:19;100049.13;;;25.10;79.48
10668;BME280;5382;42.136;24.796;2022-09-09T09:02:53;100043.31;;;25.13;75.48
10668;BME280;5382;42.136;24.796;2022-09-09T09:05:30;100030.16;;;25.10;75.32
10668;BME280;5382;42.136;24.796;2022-09-09T09:08:05;100018.94;;;25.13;74.32
10668;BME280;5382;42.136;24.796;2022-09-09T09:10:45;100029.50;;;25.50;74.41
10668;BME280;5382;42.136;24.796;2022-09-09T09:13:19;100024.31;;;25.81;73.11
10668;BME280;5382;42.136;24.796;2022-09-09T09:15:51;100030.03;;;26.06;72.99
10668;BME280;5382;42.136;24.796;2022-09-09T09:18:19;99991.78;;;25.68;74.74
10668;BME280;5382;42.136;24.796;2022-09-09T09:21:02;100025.84;;;26.04;74.82
10668;BME280;5382;42.136;24.796;2022-09-09T09:23:42;100023.34;;;26.02;74.63
10668;BME280;5382;42.136;24.796;2022-09-09T09:26:12;100020.00;;;26.14;73.06
10668;BME280;5382;42.136;24.796;2022-09-09T09:28:41;100004.72;;;26.46;71.75
10668;BME280;5382;42.136;24.796;2022-09-09T09:31:10;99997.34;;;26.80;70.63
10668;BME280;5382;42.136;24.796;2022-09-09T09:33:45;100001.09;;;26.92;69.03
10668;BME280;5382;42.136;24.796;2022-09-09T09:36:13;99998.16;;;26.93;70.24
10668;BME280;5382;42.136;24.796;2022-09-09T09:38:52;99990.84;;;27.01;68.82
10668;BME280;5382;42.136;24.796;2022-09-09T09:41:32;99977.25;;;27.01;69.75
10668;BME280;5382;42.136;24.796;2022-09-09T09:44:03;99985.09;;;27.22;68.06
10668;BME280;5382;42.136;24.796;2022-09-09T09:46:31;99974.97;;;27.36;65.99
10668;BME280;5382;42.136;24.796;2022-09-09T09:49:00;99979.84;;;27.59;64.08
10668;BME280;5382;42.136;24.796;2022-09-09T09:51:30;99971.25;;;27.62;67.21
10668;BME280;5382;42.136;24.796;2022-09-09T09:54:08;99971.84;;;27.71;65.58
10668;BME280;5382;42.136;24.796;2022-09-09T09:56:36;99982.97;;;27.62;67.07
10668;BME280;5382;42.136;24.796;2022-09-09T09:59:04;99976.94;;;27.60;66.44
10668;BME280;5382;42.136;24.796;2022-09-09T10:01:32;99965.63;;;27.57;67.65
10668;BME280;5382;42.136;24.796;2022-09-09T10:04:03;99973.25;;;27.48;67.49
10668;BME280;5382;42.136;24.796;2022-09-09T10:06:40;99949.91;;;27.66;67.99
10668;BME280;5382;42.136;24.796;2022-09-09T10:09:21;99963.75;;;27.89;66.47
10668;BME280;5382;42.136;24.796;2022-09-09T10:11:56;99936.19;;;27.86;66.38
10668;BME280;5382;42.136;24.796;2022-09-09T10:14:32;99937.34;;;27.96;68.33
10668;BME280;5382;42.136;24.796;2022-09-09T10:17:13;99905.22;;;27.87;65.04
10668;BME280;5382;42.136;24.796;2022-09-09T10:19:47;99947.84;;;28.11;64.20
10668;BME280;5382;42.136;24.796;2022-09-09T10:22:25;99943.59;;;28.22;63.97
10668;BME280;5382;42.136;24.796;2022-09-09T10:25:11;99946.94;;;28.42;65.25
10668;BME280;5382;42.136;24.796;2022-09-09T10:27:49;99938.97;;;28.47;63.81
10668;BME280;5382;42.136;24.796;2022-09-09T10:30:23;99927.75;;;28.56;62.20
10668;BME280;5382;42.136;24.796;2022-09-09T10:33:01;99949.66;;;28.79;65.34
10668;BME280;5382;42.136;24.796;2022-09-09T10:35:33;99909.28;;;28.58;60.85
10668;BME280;5382;42.136;24.796;2022-09-09T10:38:14;99940.66;;;29.27;60.94
10668;BME280;5382;42.136;24.796;2022-09-09T10:43:44;99933.94;;;29.95;55.62
10668;BME280;5382;42.136;24.796;2022-09-09T10:46:19;99934.03;;;30.48;54.77
10668;BME280;5382;42.136;24.796;2022-09-09T10:49:02;99933.41;;;31.10;53.44
10668;BME280;5382;42.136;24.796;2022-09-09T10:51:40;99928.91;;;31.32;50.23
10668;BME280;5382;42.136;24.796;2022-09-09T10:54:25;99915.28;;;31.66;48.51
10668;BME280;5382;42.136;24.796;2022-09-09T10:56:59;99917.94;;;31.94;47.81
10668;BME280;5382;42.136;24.796;2022-09-09T10:59:33;99922.47;;;32.45;47.47
10668;BME280;5382;42.136;24.796;2022-09-09T11:02:12;99920.88;;;32.71;44.52
10668;BME280;5382;42.136;24.796;2022-09-09T11:04:44;99917.97;;;32.77;44.67
10668;BME280;5382;42.136;24.796;2022-09-09T11:07:24;99883.97;;;32.34;44.63
10668;BME280;5382;42.136;24.796;2022-09-09T11:09:54;99907.56;;;33.29;42.52
10668;BME280;5382;42.136;24.796;2022-09-09T11:12:27;99884.34;;;33.74;42.56
10668;BME280;5382;42.136;24.796;2022-09-09T11:14:59;99896.56;;;33.93;40.76
10668;BME280;5382;42.136;24.796;2022-09-09T11:17:37;99885.13;;;33.37;41.73
10668;BME280;5382;42.136;24.796;2022-09-09T11:20:13;99889.56;;;34.65;39.51
10668;BME280;5382;42.136;24.796;2022-09-09T11:22:45;99883.13;;;35.58;38.16
10668;BME280;5382;42.136;24.796;2022-09-09T11:25:17;99888.84;;;35.98;36.17
10668;BME280;5382;42.136;24.796;2022-09-09T11:28:00;99867.41;;;35.85;36.68
10668;BME280;5382;42.136;24.796;2022-09-09T11:30:46;99866.31;;;35.70;36.46
10668;BME280;5382;42.136;24.796;2022-09-09T11:33:30;99863.56;;;35.60;36.23
10668;BME280;5382;42.136;24.796;2022-09-09T11:36:11;99870.72;;;35.76;36.49
10668;BME280;5382;42.136;24.796;2022-09-09T11:38:45;99856.72;;;36.58;34.22
10668;BME280;5382;42.136;24.796;2022-09-09T11:41:14;99858.34;;;36.64;33.99
10668;BME280;5382;42.136;24.796;2022-09-09T11:43:44;99855.34;;;37.00;33.39
10668;BME280;5382;42.136;24.796;2022-09-09T11:46:15;99860.13;;;37.29;32.94
10668;BME280;5382;42.136;24.796;2022-09-09T11:48:57;99860.03;;;37.39;33.14
10668;BME280;5382;42.136;24.796;2022-09-09T11:51:26;99857.78;;;37.46;31.73
10668;BME280;5382;42.136;24.796;2022-09-09T11:53:55;99851.78;;;37.92;32.38
10668;BME280;5382;42.136;24.796;2022-09-09T11:56:26;99849.78;;;37.74;31.19
10668;BME280;5382;42.136;24.796;2022-09-09T11:58:59;99839.16;;;37.86;32.28
10668;BME280;5382;42.136;24.796;2022-09-09T12:01:38;99844.25;;;38.03;32.46
10668;BME280;5382;42.136;24.796;2022-09-09T12:04:30;99839.09;;;37.91;31.86
10668;BME280;5382;42.136;24.796;2022-09-09T12:07:00;99831.50;;;37.54;31.98
10668;BME280;5382;42.136;24.796;2022-09-09T12:09:44;99806.50;;;37.35;32.36
10668;BME280;5382;42.136;24.796;2022-09-09T12:12:28;99818.72;;;37.29;33.15
10668;BME280;5382;42.136;24.796;2022-09-09T12:14:58;99810.88;;;37.41;33.97
10668;BME280;5382;42.136;24.796;2022-09-09T12:17:28;99817.72;;;38.02;32.22
10668;BME280;5382;42.136;24.796;2022-09-09T12:20:13;99805.69;;;37.64;31.50
10668;BME280;5382;42.136;24.796;2022-09-09T12:25:34;99808.91;;;37.47;31.98
10668;BME280;5382;42.136;24.796;2022-09-09T12:28:06;99805.09;;;37.08;32.57
10668;BME280;5382;42.136;24.796;2022-09-09T12:30:42;99801.56;;;36.98;33.84
10668;BME280;5382;42.136;24.796;2022-09-09T12:33:17;99794.72;;;36.56;33.83
10668;BME280;5382;42.136;24.796;2022-09-09T12:35:49;99792.19;;;36.99;32.90
10668;BME280;5382;42.136;24.796;2022-09-09T12:38:24;99786.69;;;36.94;33.62
10668;BME280;5382;42.136;24.796;2022-09-09T12:40:56;99783.00;;;36.19;33.67
10668;BME280;5382;42.136;24.796;2022-09-09T12:43:25;99778.53;;;35.64;35.46
10668;BME280;5382;42.136;24.796;2022-09-09T12:45:54;99773.28;;;35.42;35.87
10668;BME280;5382;42.136;24.796;2022-09-09T12:48:28;99776.94;;;35.16;37.13
10668;BME280;5382;42.136;24.796;2022-09-09T12:50:58;99779.00;;;34.53;36.96
10668;BME280;5382;42.136;24.796;2022-09-09T12:53:29;99772.19;;;33.87;38.82
10668;BME280;5382;42.136;24.796;2022-09-09T12:55:59;99773.69;;;34.16;39.69
10668;BME280;5382;42.136;24.796;2022-09-09T12:58:28;99760.22;;;34.09;39.20
10668;BME280;5382;42.136;24.796;2022-09-09T13:01:01;99763.91;;;33.77;39.68
10668;BME280;5382;42.136;24.796;2022-09-09T13:03:31;99754.59;;;33.83;39.40
10668;BME280;5382;42.136;24.796;2022-09-09T13:06:11;99756.38;;;34.15;38.51
10668;BME280;5382;42.136;24.796;2022-09-09T13:08:38;99753.41;;;34.27;38.66
10668;BME280;5382;42.136;24.796;2022-09-09T13:11:09;99745.28;;;34.73;39.53
10668;BME280;5382;42.136;24.796;2022-09-09T13:13:40;99746.91;;;35.00;37.06
10668;BME280;5382;42.136;24.796;2022-09-09T13:16:24;99746.91;;;34.94;36.38